createdAt,value
2019-02-25T00:00:31.544Z,28.20
2019-02-25T00:03:00.868Z,27.23
2019-02-25T00:05:30.540Z,26.93
2019-02-25T00:07:59.812Z,27.43
2019-02-25T00:10:29.188Z,27.87
2019-02-25T00:12:58.488Z,29.63
2019-02-25T00:15:27.728Z,25.67
2019-02-25T00:17:57.068Z,32.77
2019-02-25T00:20:26.420Z,30.23
2019-02-25T00:22:55.713Z,30.33
2019-02-25T00:25:25.020Z,33.27
2019-02-25T00:27:54.264Z,31.07
2019-02-25T00:30:24.168Z,27.37
2019-02-25T00:32:53.560Z,31.07
2019-02-25T00:35:22.914Z,22.63
2019-02-25T00:37:52.224Z,19.20
2019-02-25T00:40:21.484Z,17.03
2019-02-25T00:42:50.740Z,16.97
2019-02-25T00:45:20.056Z,17.40
2019-02-25T00:47:49.311Z,18.80
2019-02-25T00:50:18.580Z,16.90
2019-02-25T00:52:47.863Z,18.30
2019-02-25T00:55:17.139Z,18.23
2019-02-25T00:57:46.677Z,19.97
2019-02-25T01:00:17.212Z,22.40
2019-02-25T01:02:46.455Z,23.07
2019-02-25T01:05:16.069Z,21.37
2019-02-25T01:07:45.459Z,26.97
2019-02-25T01:10:14.944Z,26.87
2019-02-25T01:12:44.763Z,25.97
2019-02-25T01:15:14.450Z,26.37
2019-02-25T01:17:44.011Z,25.37
2019-02-25T01:20:13.587Z,26.33
2019-02-25T01:22:42.966Z,28.30
2019-02-25T01:25:13.195Z,25.97
2019-02-25T01:27:42.455Z,28.60
2019-02-25T01:30:13.387Z,28.00
2019-02-25T01:32:42.659Z,26.47
2019-02-25T01:35:12.315Z,27.13
2019-02-25T01:37:41.616Z,25.83
2019-02-25T01:40:11.023Z,27.13
2019-02-25T01:42:40.295Z,24.90
2019-02-25T01:45:10.923Z,23.43
2019-02-25T01:47:40.255Z,22.20
2019-02-25T01:50:10.029Z,22.77
2019-02-25T01:52:39.375Z,24.57
2019-02-25T01:55:09.102Z,22.50
2019-02-25T01:57:38.390Z,21.03
2019-02-25T02:00:10.586Z,19.63
2019-02-25T02:02:39.898Z,20.47
2019-02-25T02:05:09.162Z,22.33
2019-02-25T02:07:38.426Z,22.57
2019-02-25T02:10:09.238Z,23.50
2019-02-25T02:12:38.486Z,25.57
2019-02-25T02:15:13.242Z,26.27
2019-02-25T02:17:42.531Z,23.80
2019-02-25T02:20:13.307Z,23.47
2019-02-25T02:22:42.643Z,20.13
2019-02-25T02:25:11.975Z,19.10
2019-02-25T02:27:41.908Z,15.87
2019-02-25T02:30:14.314Z,19.43
2019-02-25T02:32:43.554Z,19.50
2019-02-25T02:35:12.822Z,16.83
2019-02-25T02:37:42.117Z,15.90
2019-02-25T02:40:12.167Z,15.27
2019-02-25T02:42:42.999Z,15.60
2019-02-25T02:45:15.887Z,16.67
2019-02-25T02:48:15.827Z,17.53
2019-02-25T02:50:45.182Z,16.13
2019-02-25T02:53:14.555Z,16.43
2019-02-25T02:55:43.877Z,15.50
2019-02-25T02:58:13.149Z,14.20
2019-02-25T03:00:42.433Z,14.40
2019-02-25T03:03:11.679Z,15.07
2019-02-25T03:05:41.059Z,14.97
2019-02-25T03:08:10.385Z,15.33
2019-02-25T03:10:39.738Z,15.83
2019-02-25T03:13:09.043Z,15.07
2019-02-25T03:15:38.328Z,15.13
2019-02-25T03:18:07.735Z,15.60
2019-02-25T03:20:37.154Z,20.03
2019-02-25T03:23:06.489Z,20.20
2019-02-25T03:25:35.831Z,22.10
2019-02-25T03:28:05.130Z,20.43
2019-02-25T03:30:34.398Z,19.90
2019-02-25T03:33:04.005Z,16.93
2019-02-25T03:35:33.291Z,15.10
2019-02-25T03:38:02.559Z,14.80
2019-02-25T03:40:31.896Z,14.37
2019-02-25T03:43:01.210Z,14.77
2019-02-25T03:45:30.536Z,16.70
2019-02-25T03:47:59.820Z,13.37
2019-02-25T03:50:29.161Z,16.30
2019-02-25T03:52:58.469Z,16.57
2019-02-25T03:55:27.760Z,15.87
2019-02-25T03:57:57.152Z,14.63
2019-02-25T04:00:26.437Z,15.50
2019-02-25T04:02:56.097Z,15.20
2019-02-25T04:05:25.383Z,17.30
2019-02-25T04:07:54.677Z,16.87
2019-02-25T04:10:23.993Z,19.00
2019-02-25T04:12:53.336Z,17.93
2019-02-25T04:15:25.353Z,21.50
2019-02-25T04:17:54.633Z,19.87
2019-02-25T04:20:24.048Z,17.93
2019-02-25T04:22:53.323Z,16.83
2019-02-25T04:25:22.603Z,16.27
2019-02-25T04:27:51.827Z,16.27
2019-02-25T04:30:21.199Z,14.10
2019-02-25T04:32:50.475Z,15.17
2019-02-25T04:35:19.747Z,19.33
2019-02-25T04:37:49.022Z,21.73
2019-02-25T04:40:18.582Z,24.80
2019-02-25T04:42:47.859Z,23.60
2019-02-25T04:45:17.755Z,24.37
2019-02-25T04:47:47.174Z,24.57
2019-02-25T04:50:16.538Z,22.27
2019-02-25T04:52:45.766Z,20.63
2019-02-25T04:55:15.243Z,23.00
2019-02-25T04:57:44.523Z,20.03
2019-02-25T05:00:15.574Z,26.13
2019-02-25T05:05:23.065Z,21.87
2019-02-25T05:07:52.329Z,25.80
2019-02-25T05:10:21.699Z,21.50
2019-02-25T05:13:02.677Z,21.80
2019-02-25T05:15:32.393Z,24.17
2019-02-25T05:18:01.759Z,24.23
2019-02-25T05:20:31.106Z,24.80
2019-02-25T05:23:00.450Z,25.00
2019-02-25T05:25:29.673Z,24.97
2019-02-25T05:27:58.944Z,23.43
2019-02-25T05:30:28.232Z,24.80
2019-02-25T05:32:57.513Z,25.37
2019-02-25T05:35:26.797Z,24.03
2019-02-25T05:37:56.056Z,26.67
2019-02-25T05:40:25.318Z,25.83
2019-02-25T05:42:54.596Z,24.77
2019-02-25T05:45:23.857Z,24.00
2019-02-25T05:47:53.193Z,24.93
2019-02-25T05:50:23.091Z,25.37
2019-02-25T05:52:52.442Z,26.07
2019-02-25T05:55:21.676Z,25.33
2019-02-25T05:57:50.998Z,27.63
2019-02-25T06:00:22.391Z,27.07
2019-02-25T06:02:53.235Z,26.60
2019-02-25T06:05:22.661Z,26.07
2019-02-25T06:07:51.950Z,26.90
2019-02-25T06:10:21.206Z,26.57
2019-02-25T06:12:50.541Z,27.20
2019-02-25T06:15:20.195Z,27.53
2019-02-25T06:17:49.496Z,27.63
2019-02-25T06:20:18.725Z,25.90
2019-02-25T06:22:47.934Z,26.57
2019-02-25T06:25:17.189Z,26.70
2019-02-25T06:27:46.569Z,25.67
2019-02-25T06:30:16.848Z,27.83
2019-02-25T06:32:46.149Z,25.23
2019-02-25T06:35:15.410Z,28.43
2019-02-25T06:37:44.717Z,29.50
2019-02-25T06:40:15.757Z,29.50
2019-02-25T06:42:45.229Z,28.13
2019-02-25T06:45:16.273Z,25.80
2019-02-25T06:47:46.377Z,27.73
2019-02-25T06:50:15.740Z,26.33
2019-02-25T06:52:45.435Z,27.03
2019-02-25T06:55:15.420Z,25.03
2019-02-25T06:57:44.678Z,26.87
2019-02-25T07:00:18.112Z,24.57
2019-02-25T07:02:47.445Z,26.03
2019-02-25T07:05:35.937Z,26.13
2019-02-25T07:08:30.296Z,24.60
2019-02-25T07:11:27.773Z,24.67
2019-02-25T07:14:15.187Z,25.90
2019-02-25T07:17:00.844Z,25.53
2019-02-25T07:19:39.088Z,24.67
2019-02-25T07:22:25.368Z,25.33
2019-02-25T07:25:09.204Z,26.30
2019-02-25T07:27:56.278Z,27.93
2019-02-25T07:30:47.205Z,26.53
2019-02-25T07:33:40.661Z,27.87
2019-02-25T07:36:27.568Z,27.63
2019-02-25T07:39:14.716Z,27.30
2019-02-25T07:42:03.063Z,25.33
2019-02-25T07:44:54.247Z,23.70
2019-02-25T07:47:57.627Z,25.40
2019-02-25T07:51:04.423Z,25.63
2019-02-25T07:53:58.699Z,25.70
2019-02-25T07:56:45.804Z,24.73
2019-02-25T07:59:32.455Z,25.57
2019-02-25T08:02:13.939Z,24.93
2019-02-25T08:05:05.099Z,26.67
2019-02-25T08:07:53.464Z,27.67
2019-02-25T08:10:37.992Z,27.80
2019-02-25T08:13:15.431Z,28.67
2019-02-25T08:15:56.811Z,23.07
2019-02-25T08:18:38.050Z,25.40
2019-02-25T08:21:35.463Z,28.93
2019-02-25T08:24:39.180Z,27.83
2019-02-25T08:27:26.347Z,24.47
2019-02-25T08:30:13.190Z,27.90
2019-02-25T08:32:55.399Z,26.53
2019-02-25T08:36:20.718Z,24.80
2019-02-25T08:39:08.825Z,35.80
2019-02-25T08:41:46.854Z,25.67
2019-02-25T08:44:35.138Z,25.07
2019-02-25T08:47:12.158Z,26.83
2019-02-25T08:49:47.470Z,24.87
2019-02-25T08:52:16.706Z,26.67
2019-02-25T08:54:45.996Z,26.23
2019-02-25T08:57:15.246Z,29.07
2019-02-25T08:59:44.880Z,24.83
2019-02-25T09:02:14.142Z,29.50
2019-02-25T09:04:43.423Z,25.90
2019-02-25T09:07:12.798Z,27.30
2019-02-25T09:09:42.093Z,29.10
2019-02-25T09:12:11.366Z,26.20
2019-02-25T09:14:40.700Z,26.57
2019-02-25T09:17:09.891Z,27.77
2019-02-25T09:19:39.207Z,28.40
2019-02-25T09:22:08.486Z,30.67
2019-02-25T09:24:37.797Z,27.27
2019-02-25T09:27:07.040Z,29.63
2019-02-25T09:29:36.322Z,27.83
2019-02-25T09:32:05.639Z,28.17
2019-02-25T09:34:34.957Z,29.00
2019-02-25T09:37:04.218Z,28.70
2019-02-25T09:39:33.510Z,28.47
2019-02-25T09:42:02.858Z,27.20
2019-02-25T09:44:32.141Z,26.80
2019-02-25T09:47:01.530Z,31.13
2019-02-25T09:49:30.826Z,27.87
2019-02-25T09:52:00.161Z,26.23
2019-02-25T09:54:29.442Z,24.83
2019-02-25T09:56:58.686Z,29.10
2019-02-25T09:59:28.353Z,26.07
2019-02-25T10:01:57.642Z,27.00
2019-02-25T10:04:28.770Z,25.43
2019-02-25T10:07:02.285Z,26.73
2019-02-25T10:09:30.044Z,28.43
2019-02-25T10:11:59.962Z,25.40
2019-02-25T10:14:29.217Z,24.27
2019-02-25T10:16:58.534Z,25.17
2019-02-25T10:19:27.770Z,28.47
2019-02-25T10:21:57.895Z,40.17
2019-02-25T10:24:27.155Z,27.70
2019-02-25T10:26:56.442Z,26.00
2019-02-25T10:29:25.705Z,25.97
2019-02-25T10:31:55.217Z,27.47
2019-02-25T10:34:24.525Z,26.10
2019-02-25T10:36:53.820Z,25.43
2019-02-25T10:39:23.066Z,24.40
2019-02-25T10:41:53.295Z,23.27
2019-02-25T10:44:23.337Z,24.00
2019-02-25T10:46:52.595Z,23.73
2019-02-25T10:49:22.564Z,24.43
2019-02-25T10:51:52.787Z,25.13
2019-02-25T10:54:23.290Z,25.40
2019-02-25T10:56:57.852Z,23.27
2019-02-25T10:59:27.232Z,22.80
2019-02-25T11:01:56.510Z,22.83
2019-02-25T11:04:26.276Z,23.03
2019-02-25T11:06:55.622Z,20.30
2019-02-25T11:10:02.515Z,21.40
2019-02-25T11:12:32.184Z,21.57
2019-02-25T11:15:01.602Z,19.80
2019-02-25T11:17:31.450Z,19.33
2019-02-25T11:20:03.066Z,20.73
2019-02-25T11:22:31.586Z,18.83
2019-02-25T11:25:00.893Z,26.47
2019-02-25T11:27:31.343Z,20.60
2019-02-25T11:30:01.162Z,21.63
2019-02-25T11:32:30.462Z,20.87
2019-02-25T11:35:01.293Z,21.37
2019-02-25T11:37:30.806Z,23.80
2019-02-25T11:40:01.853Z,51.13
2019-02-25T11:42:31.114Z,19.80
2019-02-25T11:45:02.413Z,17.83
2019-02-25T11:47:31.326Z,18.00
2019-02-25T11:50:00.577Z,16.40
2019-02-25T11:52:29.845Z,17.47
2019-02-25T11:54:59.390Z,16.90
2019-02-25T11:57:28.673Z,16.53
2019-02-25T11:59:58.054Z,18.20
2019-02-25T12:02:27.386Z,15.77
2019-02-25T12:04:56.666Z,18.77
2019-02-25T12:07:26.022Z,16.10
2019-02-25T12:09:55.362Z,17.20
2019-02-25T12:12:24.707Z,15.87
2019-02-25T12:14:53.985Z,15.13
2019-02-25T12:17:23.295Z,15.03
2019-02-25T12:19:52.545Z,12.77
2019-02-25T12:22:22.500Z,13.73
2019-02-25T12:24:51.749Z,14.63
2019-02-25T12:27:21.061Z,12.97
2019-02-25T12:29:50.361Z,13.00
2019-02-25T12:32:19.633Z,13.63
2019-02-25T12:34:48.893Z,12.13
2019-02-25T12:37:18.177Z,13.63
2019-02-25T12:39:47.449Z,13.60
2019-02-25T12:42:16.885Z,13.77
2019-02-25T12:44:46.192Z,14.60
2019-02-25T12:47:15.452Z,13.97
2019-02-25T12:49:44.717Z,14.03
2019-02-25T12:52:13.988Z,14.23
2019-02-25T12:54:43.298Z,12.60
2019-02-25T12:57:12.617Z,14.53
2019-02-25T12:59:41.832Z,13.67
2019-02-25T13:02:11.112Z,14.67
2019-02-25T13:04:40.452Z,13.80
2019-02-25T13:07:09.769Z,13.23
2019-02-25T13:09:39.133Z,13.20
2019-02-25T13:12:08.406Z,12.43
2019-02-25T13:14:37.688Z,12.63
2019-02-25T13:17:06.964Z,12.33
2019-02-25T13:19:36.244Z,12.07
2019-02-25T13:22:05.503Z,12.10
2019-02-25T13:24:37.312Z,11.57
2019-02-25T13:27:08.415Z,12.57
2019-02-25T13:29:37.571Z,11.63
2019-02-25T13:32:06.875Z,12.47
2019-02-25T13:34:36.241Z,12.00
2019-02-25T13:37:05.804Z,11.37
2019-02-25T13:39:36.600Z,11.90
2019-02-25T13:42:05.892Z,12.60
2019-02-25T13:44:35.152Z,10.80
2019-02-25T13:47:04.438Z,11.37
2019-02-25T13:49:33.714Z,11.20
2019-02-25T13:52:03.128Z,13.27
2019-02-25T13:54:32.896Z,13.10
2019-02-25T13:57:02.603Z,13.00
2019-02-25T13:59:31.896Z,13.40
2019-02-25T14:02:01.133Z,11.63
2019-02-25T14:04:30.435Z,12.63
2019-02-25T14:06:59.678Z,13.10
2019-02-25T14:09:28.964Z,9.77
2019-02-25T14:11:58.491Z,10.50
2019-02-25T14:14:27.776Z,10.80
2019-02-25T14:16:57.090Z,12.83
2019-02-25T14:19:26.377Z,9.53
2019-02-25T14:21:56.112Z,38.60
2019-02-25T14:24:25.447Z,15.03
2019-02-25T14:26:54.705Z,9.27
2019-02-25T14:29:26.257Z,8.87
2019-02-25T14:31:54.908Z,8.10
2019-02-25T14:34:24.244Z,13.43
2019-02-25T14:36:54.936Z,8.07
2019-02-25T14:39:28.113Z,7.93
2019-02-25T14:41:58.714Z,7.83
2019-02-25T14:44:31.999Z,8.77
2019-02-25T14:46:58.686Z,8.37
2019-02-25T14:49:30.152Z,8.07
2019-02-25T14:52:00.079Z,9.87
2019-02-25T14:54:31.759Z,13.37
2019-02-25T14:57:00.367Z,10.50
2019-02-25T14:59:30.803Z,8.77
2019-02-25T15:02:02.153Z,9.03
2019-02-25T15:04:32.601Z,10.87
2019-02-25T15:07:03.753Z,7.97
2019-02-25T15:09:34.847Z,8.93
2019-02-25T15:12:06.407Z,8.27
2019-02-25T15:14:35.374Z,7.50
2019-02-25T15:17:06.054Z,7.37
2019-02-25T15:19:36.529Z,8.77
2019-02-25T15:22:06.418Z,8.47
2019-02-25T15:24:36.025Z,8.60
2019-02-25T15:27:07.229Z,7.90
2019-02-25T15:29:39.211Z,7.23
2019-02-25T15:32:08.155Z,7.77
2019-02-25T15:34:37.696Z,8.40
2019-02-25T15:37:07.661Z,10.87
2019-02-25T15:39:41.786Z,9.83
2019-02-25T15:42:08.953Z,11.33
2019-02-25T15:44:40.362Z,9.90
2019-02-25T15:47:10.821Z,12.03
2019-02-25T15:49:40.337Z,9.27
2019-02-25T15:52:10.585Z,13.50
2019-02-25T15:54:41.408Z,10.60
2019-02-25T15:57:11.142Z,9.53
2019-02-25T15:59:40.475Z,15.37
2019-02-25T16:02:13.499Z,9.03
2019-02-25T16:04:42.365Z,21.50
2019-02-25T16:07:11.997Z,12.63
2019-02-25T16:09:41.272Z,12.90
2019-02-25T16:12:10.717Z,46.30
2019-02-25T16:14:41.870Z,26.37
2019-02-25T16:17:11.109Z,26.67
2019-02-25T16:19:47.141Z,15.03
2019-02-25T16:22:11.859Z,25.37
2019-02-25T16:24:41.152Z,11.53
2019-02-25T16:27:11.509Z,9.63
2019-02-25T16:29:40.748Z,11.37
2019-02-25T16:32:10.313Z,10.60
2019-02-25T16:34:40.549Z,14.53
2019-02-25T16:37:12.154Z,12.50
2019-02-25T16:39:41.562Z,17.30
2019-02-25T16:42:10.805Z,14.17
2019-02-25T16:44:40.091Z,10.83
2019-02-25T16:47:09.765Z,12.00
2019-02-25T16:49:40.301Z,9.63
2019-02-25T16:52:09.657Z,9.40
2019-02-25T16:54:38.884Z,40.50
2019-02-25T16:57:08.155Z,91.30
2019-02-25T16:59:37.458Z,30.50
2019-02-25T17:02:08.914Z,17.87
2019-02-25T17:04:37.816Z,19.03
2019-02-25T17:07:07.143Z,14.43
2019-02-25T17:09:38.638Z,17.30
2019-02-25T17:12:08.887Z,14.40
2019-02-25T17:14:40.459Z,14.47
2019-02-25T17:17:09.679Z,15.93
2019-02-25T17:19:39.083Z,20.83
2019-02-25T17:22:08.383Z,16.27
2019-02-25T17:24:39.249Z,15.77
2019-02-25T17:27:09.862Z,12.30
2019-02-25T17:29:40.124Z,11.80
2019-02-25T17:32:10.112Z,11.17
2019-02-25T17:34:40.145Z,11.07
2019-02-25T17:37:12.483Z,10.77
2019-02-25T17:39:41.521Z,10.20
2019-02-25T17:42:11.400Z,8.17
2019-02-25T17:44:41.012Z,8.27
2019-02-25T17:47:11.093Z,7.70
2019-02-25T17:49:42.845Z,7.37
2019-02-25T17:52:14.202Z,8.30
2019-02-25T17:54:43.747Z,6.57
2019-02-25T17:57:14.234Z,6.23
2019-02-25T17:59:44.099Z,8.07
2019-02-25T18:02:14.726Z,9.87
2019-02-25T18:04:44.019Z,10.90
2019-02-25T18:07:13.333Z,7.77
2019-02-25T18:09:44.447Z,6.53
2019-02-25T18:12:13.830Z,6.83
2019-02-25T18:14:44.863Z,7.07
2019-02-25T18:17:16.868Z,6.70
2019-02-25T18:19:45.716Z,7.07
2019-02-25T18:22:17.242Z,7.17
2019-02-25T18:24:46.774Z,7.93
2019-02-25T18:27:16.498Z,6.77
2019-02-25T18:29:46.285Z,7.57
2019-02-25T18:32:16.774Z,7.77
2019-02-25T18:34:46.357Z,7.10
2019-02-25T18:37:17.564Z,7.37
2019-02-25T18:39:47.873Z,7.00
2019-02-25T18:42:18.517Z,6.90
2019-02-25T18:44:49.594Z,7.17
2019-02-25T18:47:20.734Z,10.10
2019-02-25T18:49:52.114Z,10.50
2019-02-25T18:52:22.127Z,9.57
2019-02-25T18:54:51.424Z,9.73
2019-02-25T18:57:21.461Z,10.10
2019-02-25T18:59:51.619Z,10.70
2019-02-25T19:02:21.238Z,15.30
2019-02-25T19:04:50.482Z,27.30
2019-02-25T19:07:20.036Z,21.50
2019-02-25T19:09:51.463Z,28.17
2019-02-25T19:12:20.349Z,36.67
2019-02-25T19:14:52.973Z,20.23
2019-02-25T19:17:21.059Z,22.63
2019-02-25T19:19:51.657Z,24.20
2019-02-25T19:22:22.202Z,28.30
2019-02-25T19:24:52.375Z,30.17
2019-02-25T19:27:21.633Z,24.13
2019-02-25T19:29:51.534Z,23.40
2019-02-25T19:32:23.030Z,27.47
2019-02-25T19:34:54.102Z,48.37
2019-02-25T19:37:23.825Z,40.93
2019-02-25T19:39:53.227Z,63.80
2019-02-25T19:42:24.568Z,26.73
2019-02-25T19:44:53.537Z,34.17
2019-02-25T19:47:22.843Z,27.77
2019-02-25T19:49:52.134Z,34.60
2019-02-25T19:52:21.729Z,22.90
2019-02-25T19:54:51.020Z,29.20
2019-02-25T19:57:21.677Z,25.97
2019-02-25T19:59:52.981Z,75.87
2019-02-25T20:02:22.586Z,57.40
2019-02-25T20:04:53.270Z,40.73
2019-02-25T20:07:25.893Z,43.43
2019-02-25T20:09:55.274Z,55.50
2019-02-25T20:12:24.532Z,44.43
2019-02-25T20:14:53.853Z,49.03
2019-02-25T20:17:27.745Z,47.77
2019-02-25T20:19:54.425Z,34.67
2019-02-25T20:22:23.682Z,18.23
2019-02-25T20:24:55.070Z,19.83
2019-02-25T20:27:23.994Z,22.23
2019-02-25T20:29:53.345Z,33.47
2019-02-25T20:32:24.669Z,40.17
2019-02-25T20:34:55.042Z,36.77
2019-02-25T20:37:25.583Z,20.97
2019-02-25T20:39:56.045Z,24.40
2019-02-25T20:42:26.219Z,29.87
2019-02-25T20:44:57.556Z,35.00
2019-02-25T20:47:28.632Z,36.00
2019-02-25T20:49:58.249Z,37.20
2019-02-25T20:52:28.856Z,34.80
2019-02-25T20:54:58.105Z,38.77
2019-02-25T20:57:45.988Z,36.93
2019-02-25T21:00:17.816Z,33.20
2019-02-25T21:02:47.751Z,36.37
2019-02-25T21:05:19.507Z,36.53
2019-02-25T21:07:48.604Z,32.67
2019-02-25T21:10:19.875Z,32.10
2019-02-25T21:12:50.263Z,30.97
2019-02-25T21:15:20.347Z,30.83
2019-02-25T21:17:49.624Z,25.83
2019-02-25T21:20:19.652Z,24.50
2019-02-25T21:22:52.454Z,23.80
2019-02-25T21:25:24.444Z,29.67
2019-02-25T21:27:55.140Z,31.93
2019-02-25T21:30:22.671Z,29.93
2019-02-25T21:32:53.889Z,38.73
2019-02-25T21:35:25.501Z,40.57
2019-02-25T21:37:54.632Z,32.23
2019-02-25T21:40:25.055Z,30.77
2019-02-25T21:42:56.723Z,31.60
2019-02-25T21:45:27.526Z,32.90
2019-02-25T21:47:59.082Z,31.27
2019-02-25T21:50:30.676Z,22.90
2019-02-25T21:52:58.879Z,20.17
2019-02-25T21:55:30.399Z,21.63
2019-02-25T21:58:02.084Z,21.77
2019-02-25T22:00:32.897Z,47.87
2019-02-25T22:03:01.134Z,27.03
2019-02-25T22:05:30.582Z,25.53
2019-02-25T22:08:01.911Z,23.37
2019-02-25T22:10:34.152Z,27.07
2019-02-25T22:13:04.350Z,28.83
2019-02-25T22:15:34.055Z,29.87
2019-02-25T22:18:04.293Z,33.97
2019-02-25T22:20:37.627Z,32.27
2019-02-25T22:23:07.546Z,38.87
2019-02-25T22:25:36.609Z,32.80
2019-02-25T22:28:07.591Z,31.77
2019-02-25T22:30:37.014Z,32.70
2019-02-25T22:33:07.887Z,29.07
2019-02-25T22:35:39.604Z,30.43
2019-02-25T22:38:08.209Z,31.60
2019-02-25T22:40:38.995Z,29.73
2019-02-25T22:43:10.035Z,28.63
2019-02-25T22:45:41.893Z,28.97
2019-02-25T22:48:13.562Z,30.87
2019-02-25T22:50:42.653Z,31.37
2019-02-25T22:53:12.007Z,32.93
2019-02-25T22:55:44.391Z,28.87
2019-02-25T22:58:13.319Z,28.50
2019-02-25T23:00:47.453Z,29.13
2019-02-25T23:03:18.502Z,31.63
2019-02-25T23:05:48.763Z,39.37
2019-02-25T23:08:20.863Z,43.90
2019-02-25T23:10:51.764Z,37.97
2019-02-25T23:13:22.645Z,46.77
2019-02-25T23:15:53.520Z,54.03
2019-02-25T23:18:25.078Z,63.33
2019-02-25T23:20:56.989Z,54.10
2019-02-25T23:23:26.423Z,46.27
2019-02-25T23:25:56.671Z,33.83
2019-02-25T23:28:28.558Z,23.20
2019-02-25T23:30:57.668Z,17.80
2019-02-25T23:33:26.962Z,19.00
2019-02-25T23:35:56.226Z,17.40
2019-02-25T23:38:25.502Z,16.37
2019-02-25T23:40:54.798Z,14.70
2019-02-25T23:43:24.011Z,13.97
2019-02-25T23:45:53.322Z,12.67
2019-02-25T23:48:26.405Z,17.43
2019-02-25T23:50:55.546Z,18.90
2019-02-25T23:53:26.620Z,17.47
2019-02-25T23:55:56.500Z,14.30
2019-02-25T23:58:26.426Z,13.80
